createdAt,value
2018-10-21T00:02:24.178Z,99925.54
2018-10-21T00:04:52.388Z,99929.77
2018-10-21T00:07:20.916Z,99937.60
2018-10-21T00:09:48.842Z,99927.16
2018-10-21T00:12:16.959Z,99934.16
2018-10-21T00:14:45.231Z,99933.84
2018-10-21T00:17:13.516Z,99928.88
2018-10-21T00:19:42.076Z,99936.17
2018-10-21T00:22:10.067Z,99931.16
2018-10-21T00:24:38.251Z,99934.63
2018-10-21T00:27:06.780Z,99932.41
2018-10-21T00:29:34.838Z,99934.80
2018-10-21T00:32:02.982Z,99924.59
2018-10-21T00:34:31.239Z,99929.17
2018-10-21T00:36:59.543Z,99926.45
2018-10-21T00:39:27.771Z,99918.63
2018-10-21T00:41:56.095Z,99920.73
2018-10-21T00:44:24.298Z,99926.80
2018-10-21T00:46:52.398Z,99915.09
2018-10-21T00:49:20.670Z,99915.11
2018-10-21T00:51:48.743Z,99908.03
2018-10-21T00:54:16.776Z,99906.39
2018-10-21T00:56:46.079Z,99901.14
2018-10-21T00:59:13.790Z,99899.88
2018-10-21T01:01:42.432Z,99899.14
2018-10-21T01:04:10.687Z,99887.23
2018-10-21T01:06:38.874Z,99893.87
2018-10-21T01:09:10.999Z,99887.73
2018-10-21T01:11:39.943Z,99884.06
2018-10-21T01:14:08.130Z,99886.80
2018-10-21T01:16:36.739Z,99890.38
2018-10-21T01:19:05.343Z,99894.01
2018-10-21T01:21:33.664Z,99894.23
2018-10-21T01:24:02.164Z,99891.66
2018-10-21T01:26:30.318Z,99891.48
2018-10-21T01:28:58.447Z,99898.55
2018-10-21T01:31:26.768Z,99904.92
2018-10-21T01:33:54.965Z,99907.30
2018-10-21T01:36:23.056Z,99909.28
2018-10-21T01:38:51.355Z,99907.08
2018-10-21T01:41:19.663Z,99906.78
2018-10-21T01:43:48.120Z,99902.73
2018-10-21T01:46:16.088Z,99901.66
2018-10-21T01:48:44.263Z,99897.68
2018-10-21T01:51:12.590Z,99899.77
2018-10-21T01:53:40.615Z,99898.53
2018-10-21T01:56:09.091Z,99901.24
2018-10-21T01:58:37.082Z,99901.23
2018-10-21T02:01:05.096Z,99902.37
2018-10-21T02:03:33.435Z,99898.30
2018-10-21T02:06:01.520Z,99891.39
2018-10-21T02:08:29.631Z,99883.04
2018-10-21T02:10:57.911Z,99884.86
2018-10-21T02:13:26.347Z,99878.35
2018-10-21T02:15:54.667Z,99889.00
2018-10-21T02:18:22.916Z,99887.44
2018-10-21T02:20:51.354Z,99884.61
2018-10-21T02:23:19.407Z,99882.59
2018-10-21T02:25:47.169Z,99885.26
2018-10-21T02:28:15.193Z,99883.42
2018-10-21T02:30:43.530Z,99884.23
2018-10-21T02:33:11.596Z,99887.10
2018-10-21T02:35:39.849Z,99889.69
2018-10-21T02:38:08.166Z,99888.80
2018-10-21T02:41:45.079Z,99893.26
2018-10-21T02:44:17.409Z,99886.78
2018-10-21T02:46:46.276Z,99890.16
2018-10-21T02:49:15.116Z,99887.52
2018-10-21T02:51:48.111Z,99889.15
2018-10-21T02:54:20.844Z,99889.87
2018-10-21T02:56:48.983Z,99886.00
2018-10-21T02:59:17.487Z,99890.48
2018-10-21T03:01:45.934Z,99896.94
2018-10-21T03:04:14.249Z,99885.55
2018-10-21T03:06:42.728Z,99893.86
2018-10-21T03:09:10.956Z,99886.58
2018-10-21T03:11:39.271Z,99887.45
2018-10-21T03:14:07.548Z,99873.15
2018-10-21T03:16:35.811Z,99878.56
2018-10-21T03:19:04.352Z,99884.00
2018-10-21T03:21:32.550Z,99887.95
2018-10-21T03:24:00.828Z,99891.73
2018-10-21T03:26:29.174Z,99889.61
2018-10-21T03:28:57.590Z,99887.08
2018-10-21T03:31:25.818Z,99886.78
2018-10-21T03:33:54.063Z,99887.67
2018-10-21T03:36:22.239Z,99889.52
2018-10-21T03:38:50.486Z,99887.52
2018-10-21T03:41:18.815Z,99886.33
2018-10-21T03:43:47.035Z,99883.97
2018-10-21T03:46:15.909Z,99879.08
2018-10-21T03:48:44.212Z,99877.72
2018-10-21T03:51:13.038Z,99884.40
2018-10-21T03:53:41.548Z,99880.16
2018-10-21T03:56:09.860Z,99878.19
2018-10-21T03:58:38.151Z,99874.26
2018-10-21T04:01:06.588Z,99879.90
2018-10-21T04:03:35.212Z,99875.89
2018-10-21T04:06:03.358Z,99873.25
2018-10-21T04:08:31.609Z,99872.02
2018-10-21T04:10:59.791Z,99874.86
2018-10-21T04:13:27.675Z,99878.44
2018-10-21T04:15:56.085Z,99873.50
2018-10-21T04:18:24.379Z,99867.64
2018-10-21T04:20:52.834Z,99867.54
2018-10-21T04:23:21.078Z,99870.17
2018-10-21T04:25:49.676Z,99866.16
2018-10-21T04:28:17.774Z,99868.35
2018-10-21T04:30:46.107Z,99863.66
2018-10-21T04:33:46.192Z,99869.09
2018-10-21T04:36:16.259Z,99873.95
2018-10-21T04:38:55.694Z,99877.58
2018-10-21T04:41:23.831Z,99870.69
2018-10-21T04:43:51.884Z,99872.82
2018-10-21T04:46:20.014Z,99873.70
2018-10-21T04:48:48.158Z,99868.88
2018-10-21T04:51:16.345Z,99871.11
2018-10-21T04:53:44.839Z,99874.44
2018-10-21T04:56:13.105Z,99873.26
2018-10-21T04:58:41.374Z,99875.41
2018-10-21T05:01:09.531Z,99881.33
2018-10-21T05:03:37.720Z,99885.08
2018-10-21T05:06:05.979Z,99878.25
2018-10-21T05:08:34.052Z,99883.95
2018-10-21T05:11:02.138Z,99882.65
2018-10-21T05:13:30.214Z,99881.13
2018-10-21T05:15:58.438Z,99885.31
2018-10-21T05:18:26.763Z,99889.41
2018-10-21T05:20:55.050Z,99885.91
2018-10-21T05:23:23.329Z,99885.95
2018-10-21T05:25:51.587Z,99889.95
2018-10-21T05:28:19.675Z,99889.34
2018-10-21T05:30:49.803Z,99893.21
2018-10-21T05:33:18.091Z,99893.78
2018-10-21T05:35:46.608Z,99891.20
2018-10-21T05:38:14.841Z,99896.64
2018-10-21T05:40:43.384Z,99894.47
2018-10-21T05:43:11.542Z,99894.59
2018-10-21T05:45:39.960Z,99898.70
2018-10-21T05:48:08.161Z,99906.51
2018-10-21T05:50:36.422Z,99894.87
2018-10-21T05:53:04.752Z,99903.15
2018-10-21T05:55:32.943Z,99902.00
2018-10-21T05:58:01.501Z,99909.63
2018-10-21T06:00:29.750Z,99906.95
2018-10-21T06:02:58.271Z,99909.63
2018-10-21T06:05:35.495Z,99911.02
2018-10-21T06:08:03.214Z,99905.50
2018-10-21T06:10:31.088Z,99905.78
2018-10-21T06:12:59.111Z,99909.81
2018-10-21T06:15:26.851Z,99912.30
2018-10-21T06:17:54.674Z,99913.22
2018-10-21T06:20:27.974Z,99913.76
2018-10-21T06:22:55.835Z,99913.69
2018-10-21T06:25:23.623Z,99908.44
2018-10-21T06:27:51.477Z,99909.59
2018-10-21T06:30:19.222Z,99908.69
2018-10-21T06:32:46.996Z,99911.41
2018-10-21T06:35:14.776Z,99912.39
2018-10-21T06:37:42.510Z,99913.66
2018-10-21T06:40:11.571Z,99905.45
2018-10-21T06:42:39.370Z,99906.04
2018-10-21T06:45:08.316Z,99908.19
2018-10-21T06:47:36.108Z,99903.50
2018-10-21T06:50:04.300Z,99899.52
2018-10-21T06:52:32.045Z,99901.36
2018-10-21T06:54:59.828Z,99899.25
2018-10-21T06:57:27.700Z,99904.79
2018-10-21T06:59:55.419Z,99903.15
2018-10-21T07:02:23.167Z,99906.40
2018-10-21T07:04:50.953Z,99913.89
2018-10-21T07:07:18.666Z,99913.39
2018-10-21T07:09:46.370Z,99915.27
2018-10-21T07:12:14.078Z,99913.22
2018-10-21T07:14:41.775Z,99918.61
2018-10-21T07:17:09.510Z,99918.94
2018-10-21T07:19:37.309Z,99915.52
2018-10-21T07:22:05.154Z,99916.59
2018-10-21T07:24:32.882Z,99911.55
2018-10-21T07:27:00.658Z,99901.77
2018-10-21T07:29:28.414Z,99907.60
2018-10-21T07:31:56.215Z,99905.08
2018-10-21T07:34:24.064Z,99913.11
2018-10-21T07:36:51.766Z,99911.31
2018-10-21T07:39:19.538Z,99907.88
2018-10-21T07:41:47.455Z,99909.41
2018-10-21T07:44:15.114Z,99905.64
2018-10-21T07:46:42.847Z,99902.75
2018-10-21T07:49:10.703Z,99889.77
2018-10-21T07:51:38.383Z,99888.09
2018-10-21T07:54:06.143Z,99892.63
2018-10-21T07:56:33.954Z,99893.94
2018-10-21T07:59:01.634Z,99893.45
2018-10-21T08:01:29.446Z,99893.77
2018-10-21T08:03:57.284Z,99896.22
2018-10-21T08:06:37.000Z,99894.27
2018-10-21T08:09:10.210Z,99894.42
2018-10-21T08:11:37.991Z,99896.64
2018-10-21T08:14:05.883Z,99900.74
2018-10-21T08:16:33.647Z,99902.70
2018-10-21T08:19:01.435Z,99909.90
2018-10-21T08:21:29.190Z,99906.17
2018-10-21T08:23:56.968Z,99906.88
2018-10-21T08:26:24.742Z,99903.08
2018-10-21T08:28:52.479Z,99903.14
2018-10-21T08:31:20.263Z,99900.78
2018-10-21T08:33:48.074Z,99901.33
2018-10-21T08:36:15.871Z,99905.27
2018-10-21T08:38:43.696Z,99907.20
2018-10-21T08:41:11.475Z,99907.80
2018-10-21T08:43:39.405Z,99905.38
2018-10-21T08:46:07.251Z,99907.84
2018-10-21T08:48:35.050Z,99901.05
2018-10-21T08:51:02.817Z,99904.55
2018-10-21T08:53:30.642Z,99902.73
2018-10-21T08:55:58.492Z,99903.13
2018-10-21T08:58:26.249Z,99896.05
2018-10-21T09:00:54.183Z,99892.70
2018-10-21T09:03:21.949Z,99894.50
2018-10-21T09:05:49.760Z,99883.27
2018-10-21T09:08:17.627Z,99877.39
2018-10-21T09:10:45.515Z,99888.42
2018-10-21T09:13:13.341Z,99886.03
2018-10-21T09:15:41.133Z,99896.89
2018-10-21T09:18:08.923Z,99898.58
2018-10-21T09:20:36.730Z,99898.36
2018-10-21T09:23:04.641Z,99893.81
2018-10-21T09:25:32.460Z,99893.53
2018-10-21T09:28:00.299Z,99878.30
2018-10-21T09:30:28.117Z,99881.09
2018-10-21T09:32:55.906Z,99884.58
2018-10-21T09:35:23.783Z,99886.95
2018-10-21T09:37:51.606Z,99876.58
2018-10-21T09:42:55.833Z,99874.80
2018-10-21T09:45:23.765Z,99872.70
2018-10-21T09:47:51.553Z,99875.70
2018-10-21T09:50:19.521Z,99874.41
2018-10-21T09:52:47.427Z,99879.05
2018-10-21T09:55:19.083Z,99886.45
2018-10-21T09:57:47.569Z,99875.23
2018-10-21T10:00:20.952Z,99879.24
2018-10-21T10:02:54.116Z,99880.59
2018-10-21T10:05:22.030Z,99874.26
2018-10-21T10:07:49.790Z,99876.73
2018-10-21T10:10:17.630Z,99871.85
2018-10-21T10:12:45.478Z,99872.81
2018-10-21T10:15:13.273Z,99869.64
2018-10-21T10:17:41.094Z,99872.44
2018-10-21T10:20:10.083Z,99873.27
2018-10-21T10:22:37.903Z,99874.03
2018-10-21T10:25:06.594Z,99863.29
2018-10-21T10:27:34.406Z,99857.67
2018-10-21T10:30:02.336Z,99854.66
2018-10-21T10:32:30.155Z,99852.83
2018-10-21T10:34:57.993Z,99848.16
2018-10-21T10:37:25.804Z,99849.73
2018-10-21T10:39:53.627Z,99851.95
2018-10-21T10:42:21.528Z,99857.75
2018-10-21T10:44:49.307Z,99845.40
2018-10-21T10:47:17.217Z,99846.50
2018-10-21T10:49:45.073Z,99846.42
2018-10-21T10:52:13.004Z,99843.23
2018-10-21T10:54:40.761Z,99839.33
2018-10-21T10:57:08.576Z,99842.62
2018-10-21T10:59:36.413Z,99837.41
2018-10-21T11:02:04.636Z,99834.70
2018-10-21T11:04:32.602Z,99844.23
2018-10-21T11:07:00.522Z,99837.95
2018-10-21T11:09:28.981Z,99840.70
2018-10-21T11:11:56.809Z,99831.00
2018-10-21T11:14:24.591Z,99829.44
2018-10-21T11:16:52.376Z,99831.69
2018-10-21T11:19:22.966Z,99836.56
2018-10-21T11:21:50.925Z,99831.89
2018-10-21T11:24:18.651Z,99828.25
2018-10-21T11:26:46.553Z,99831.63
2018-10-21T11:29:14.388Z,99825.35
2018-10-21T11:31:42.205Z,99832.26
2018-10-21T11:34:10.098Z,99834.23
2018-10-21T11:36:37.966Z,99833.45
2018-10-21T11:39:07.133Z,99836.84
2018-10-21T11:41:34.980Z,99840.34
2018-10-21T11:44:02.946Z,99842.64
2018-10-21T11:46:30.821Z,99845.48
2018-10-21T11:48:58.808Z,99842.67
2018-10-21T11:51:26.653Z,99836.42
2018-10-21T11:53:54.462Z,99835.19
2018-10-21T11:56:22.349Z,99835.75
2018-10-21T11:58:50.136Z,99848.99
2018-10-21T12:01:18.015Z,99836.86
2018-10-21T12:03:45.843Z,99840.73
2018-10-21T12:06:13.686Z,99837.14
2018-10-21T12:08:41.473Z,99834.96
2018-10-21T12:11:09.319Z,99835.77
2018-10-21T12:13:37.107Z,99841.44
2018-10-21T12:16:05.518Z,99837.15
2018-10-21T12:18:33.302Z,99843.09
2018-10-21T12:21:01.127Z,99850.20
2018-10-21T12:23:28.939Z,99839.73
2018-10-21T12:25:56.904Z,99844.89
2018-10-21T12:28:24.721Z,99849.27
2018-10-21T12:30:52.548Z,99840.06
2018-10-21T12:33:20.369Z,99846.12
2018-10-21T12:35:48.207Z,99842.95
2018-10-21T12:38:16.050Z,99840.82
2018-10-21T12:40:43.883Z,99852.75
2018-10-21T12:43:11.719Z,99852.28
2018-10-21T12:48:06.644Z,99848.37
2018-10-21T12:50:34.507Z,99852.81
2018-10-21T12:53:02.354Z,99858.16
2018-10-21T12:55:30.179Z,99859.95
2018-10-21T12:57:57.979Z,99866.63
2018-10-21T13:00:25.787Z,99869.45
2018-10-21T13:02:53.636Z,99867.22
2018-10-21T13:05:21.440Z,99865.90
2018-10-21T13:07:49.330Z,99873.34
2018-10-21T13:10:17.278Z,99871.50
2018-10-21T13:12:45.043Z,99872.64
2018-10-21T13:15:12.782Z,99875.62
2018-10-21T13:17:40.621Z,99872.70
2018-10-21T13:20:08.419Z,99872.91
2018-10-21T13:22:36.214Z,99873.08
2018-10-21T13:25:04.191Z,99872.69
2018-10-21T13:27:31.971Z,99872.34
2018-10-21T13:29:59.772Z,99866.42
2018-10-21T13:32:27.630Z,99862.44
2018-10-21T13:34:57.653Z,99861.85
2018-10-21T13:37:25.459Z,99864.64
2018-10-21T13:39:53.542Z,99866.42
2018-10-21T13:42:21.872Z,99863.50
2018-10-21T13:44:50.137Z,99871.33
2018-10-21T13:47:18.028Z,99868.16
2018-10-21T13:49:46.134Z,99871.01
2018-10-21T13:52:14.271Z,99864.14
2018-10-21T13:54:41.920Z,99869.16
2018-10-21T13:57:09.742Z,99869.95
2018-10-21T13:59:40.984Z,99865.61
2018-10-21T14:02:08.868Z,99866.00
2018-10-21T14:04:36.649Z,99866.79
2018-10-21T14:07:04.647Z,99867.12
2018-10-21T14:09:32.504Z,99864.69
2018-10-21T14:12:00.288Z,99858.48
2018-10-21T14:14:28.079Z,99863.31
2018-10-21T14:16:55.893Z,99859.25
2018-10-21T14:19:23.692Z,99865.65
2018-10-21T14:21:51.469Z,99866.78
2018-10-21T14:24:19.476Z,99880.41
2018-10-21T14:26:47.106Z,99898.63
2018-10-21T14:29:14.881Z,99895.92
2018-10-21T14:31:42.752Z,99894.16
2018-10-21T14:34:10.535Z,99903.97
2018-10-21T14:36:38.299Z,99901.94
2018-10-21T14:39:09.509Z,99908.31
2018-10-21T14:41:37.699Z,99905.70
2018-10-21T14:44:05.915Z,99907.84
2018-10-21T14:46:33.816Z,99914.35
2018-10-21T14:49:01.623Z,99917.08
2018-10-21T14:51:29.402Z,99912.88
2018-10-21T14:53:57.319Z,99914.98
2018-10-21T14:56:25.086Z,99919.50
2018-10-21T14:58:53.960Z,99926.70
2018-10-21T15:01:21.800Z,99932.89
2018-10-21T15:03:49.585Z,99927.91
2018-10-21T15:06:17.394Z,99931.38
2018-10-21T15:08:45.243Z,99929.59
2018-10-21T15:11:13.029Z,99934.52
2018-10-21T15:13:40.857Z,99941.11
2018-10-21T15:16:08.779Z,99941.11
2018-10-21T15:18:36.506Z,99942.77
2018-10-21T15:21:04.538Z,99945.03
2018-10-21T15:23:32.329Z,99951.78
2018-10-21T15:26:00.173Z,99948.73
2018-10-21T15:28:27.964Z,99947.50
2018-10-21T15:30:55.815Z,99951.76
2018-10-21T15:33:23.607Z,99952.50
2018-10-21T15:35:51.425Z,99951.23
2018-10-21T15:38:19.306Z,99946.77
2018-10-21T15:40:47.057Z,99952.36
2018-10-21T15:43:14.809Z,99961.45
2018-10-21T15:45:42.713Z,99958.91
2018-10-21T15:48:10.458Z,99962.77
2018-10-21T15:50:38.343Z,99962.42
2018-10-21T15:53:06.195Z,99976.66
2018-10-21T15:55:34.121Z,99968.98
2018-10-21T15:58:02.012Z,99974.99
2018-10-21T16:00:29.797Z,99975.91
2018-10-21T16:02:57.593Z,99978.98
2018-10-21T16:05:25.459Z,99980.58
2018-10-21T16:07:53.287Z,99983.55
2018-10-21T16:10:21.063Z,99986.11
2018-10-21T16:12:48.891Z,99994.08
2018-10-21T16:15:16.992Z,100002.70
2018-10-21T16:17:45.895Z,100000.14
2018-10-21T16:20:14.339Z,100007.96
2018-10-21T16:22:43.237Z,100012.95
2018-10-21T16:25:13.081Z,100009.92
2018-10-21T16:27:41.078Z,100018.31
2018-10-21T16:30:11.234Z,100024.28
2018-10-21T16:32:39.505Z,100026.12
2018-10-21T16:35:07.919Z,100027.32
2018-10-21T16:37:35.879Z,100027.17
2018-10-21T16:40:03.699Z,100035.19
2018-10-21T16:42:31.492Z,100032.44
2018-10-21T16:44:59.402Z,100033.80
2018-10-21T16:47:27.175Z,100039.44
2018-10-21T16:49:54.941Z,100043.74
2018-10-21T16:52:22.774Z,100046.09
2018-10-21T16:54:50.575Z,100047.14
2018-10-21T16:57:18.559Z,100041.70
2018-10-21T16:59:46.421Z,100040.17
2018-10-21T17:02:14.159Z,100045.17
2018-10-21T17:04:41.920Z,100038.42
2018-10-21T17:07:09.837Z,100036.95
2018-10-21T17:09:37.913Z,100044.97
2018-10-21T17:12:05.829Z,100039.99
2018-10-21T17:14:33.665Z,100044.26
2018-10-21T17:17:01.507Z,100048.17
2018-10-21T17:19:29.460Z,100057.05
2018-10-21T17:21:57.418Z,100049.38
2018-10-21T17:24:25.482Z,100055.25
2018-10-21T17:26:53.254Z,100053.59
2018-10-21T17:29:21.107Z,100050.27
2018-10-21T17:31:48.906Z,100056.67
2018-10-21T17:34:16.850Z,100054.84
2018-10-21T17:36:44.636Z,100057.21
2018-10-21T17:39:14.503Z,100057.69
2018-10-21T17:41:42.477Z,100059.33
2018-10-21T17:44:10.761Z,100066.38
2018-10-21T17:46:38.622Z,100066.62
2018-10-21T17:49:06.586Z,100062.12
2018-10-21T17:51:34.459Z,100065.06
2018-10-21T17:54:02.246Z,100068.85
2018-10-21T17:56:30.035Z,100066.22
2018-10-21T17:58:58.199Z,100071.35
2018-10-21T18:01:25.988Z,100066.63
2018-10-21T18:03:53.887Z,100067.97
2018-10-21T18:06:21.747Z,100071.03
2018-10-21T18:08:49.607Z,100076.03
2018-10-21T18:11:18.044Z,100082.59
2018-10-21T18:13:45.899Z,100082.30
2018-10-21T18:16:13.873Z,100087.17
2018-10-21T18:18:41.649Z,100085.67
2018-10-21T18:21:09.467Z,100091.29
2018-10-21T18:23:37.253Z,100093.14
2018-10-21T18:26:05.344Z,100091.32
2018-10-21T18:28:33.248Z,100091.45
2018-10-21T18:31:01.062Z,100091.81
2018-10-21T18:33:28.891Z,100092.03
2018-10-21T18:35:56.741Z,100092.81
2018-10-21T18:38:24.551Z,100091.16
2018-10-21T18:40:52.514Z,100102.33
2018-10-21T18:43:20.286Z,100103.73
2018-10-21T18:45:48.109Z,100107.83
2018-10-21T18:48:15.996Z,100106.89
2018-10-21T18:50:43.837Z,100106.39
2018-10-21T18:53:11.639Z,100107.34
2018-10-21T18:55:39.451Z,100108.40
2018-10-21T18:58:07.361Z,100109.88
2018-10-21T19:00:35.237Z,100123.59
2018-10-21T19:03:03.068Z,100119.33
2018-10-21T19:05:30.927Z,100119.63
2018-10-21T19:07:58.711Z,100125.80
2018-10-21T19:10:26.487Z,100128.39
2018-10-21T19:13:00.049Z,100137.26
2018-10-21T19:15:22.208Z,100137.26
2018-10-21T19:17:50.622Z,100141.45
2018-10-21T19:20:19.133Z,100143.77
2018-10-21T19:22:47.372Z,100143.77
2018-10-21T19:25:16.561Z,100151.80
2018-10-21T19:27:45.732Z,100154.30
2018-10-21T19:30:14.721Z,100154.17
2018-10-21T19:32:43.382Z,100154.44
2018-10-21T19:35:12.818Z,100157.65
2018-10-21T19:37:41.337Z,100162.45
2018-10-21T19:40:11.809Z,100162.70
2018-10-21T19:42:40.580Z,100173.56
2018-10-21T19:45:09.276Z,100170.66
2018-10-21T19:47:37.078Z,100168.55
2018-10-21T19:50:06.071Z,100161.77
2018-10-21T19:52:33.742Z,100162.61
2018-10-21T19:55:01.542Z,100173.84
2018-10-21T19:57:29.379Z,100175.11
2018-10-21T19:59:57.196Z,100174.27
2018-10-21T20:02:25.054Z,100175.24
2018-10-21T20:04:52.894Z,100177.88
2018-10-21T20:07:20.723Z,100178.44
2018-10-21T20:09:49.176Z,100178.91
2018-10-21T20:12:17.501Z,100188.91
2018-10-21T20:14:45.895Z,100189.90
2018-10-21T20:17:14.147Z,100185.20
2018-10-21T20:19:42.669Z,100190.61
2018-10-21T20:22:11.537Z,100205.77
2018-10-21T20:24:40.230Z,100204.16
2018-10-21T20:27:09.197Z,100211.27
2018-10-21T20:29:37.548Z,100208.59
2018-10-21T20:32:06.283Z,100208.50
2018-10-21T20:34:34.628Z,100208.14
2018-10-21T20:37:03.075Z,100200.30
2018-10-21T20:39:31.171Z,100198.84
2018-10-21T20:41:59.634Z,100202.38
2018-10-21T20:44:27.931Z,100207.11
2018-10-21T20:46:56.335Z,100202.18
2018-10-21T20:49:24.665Z,100213.71
2018-10-21T20:51:52.451Z,100202.28
2018-10-21T20:54:20.246Z,100212.52
2018-10-21T20:56:48.091Z,100214.13
2018-10-21T20:59:15.933Z,100220.42
2018-10-21T21:01:43.719Z,100216.26
2018-10-21T21:04:11.622Z,100219.38
2018-10-21T21:06:39.888Z,100219.08
2018-10-21T21:09:08.936Z,100219.55
2018-10-21T21:11:37.491Z,100213.23
2018-10-21T21:14:05.730Z,100222.23
2018-10-21T21:16:34.202Z,100218.70
2018-10-21T21:19:02.090Z,100216.98
2018-10-21T21:21:29.874Z,100217.13
2018-10-21T21:23:57.660Z,100225.12
2018-10-21T21:26:25.498Z,100225.05
2018-10-21T21:28:53.286Z,100227.39
2018-10-21T21:31:21.083Z,100223.02
2018-10-21T21:33:48.909Z,100230.95
2018-10-21T21:36:16.740Z,100230.82
2018-10-21T21:38:45.180Z,100225.97
2018-10-21T21:41:13.409Z,100232.83
2018-10-21T21:43:41.924Z,100235.72
2018-10-21T21:46:10.421Z,100230.05
2018-10-21T21:48:38.157Z,100231.80
2018-10-21T21:51:06.274Z,100240.64
2018-10-21T21:53:34.743Z,100239.95
2018-10-21T21:56:03.273Z,100243.53
2018-10-21T21:58:31.429Z,100247.22
2018-10-21T22:00:59.568Z,100250.87
2018-10-21T22:03:27.904Z,100247.59
2018-10-21T22:05:56.136Z,100248.25
2018-10-21T22:08:24.623Z,100253.29
2018-10-21T22:10:52.891Z,100249.91
2018-10-21T22:13:21.098Z,100257.45
2018-10-21T22:15:49.182Z,100254.61
2018-10-21T22:18:17.385Z,100260.80
2018-10-21T22:20:45.560Z,100260.83
2018-10-21T22:23:13.824Z,100257.60
2018-10-21T22:25:42.179Z,100252.06
2018-10-21T22:28:10.458Z,100260.55
2018-10-21T22:30:38.660Z,100251.13
2018-10-21T22:33:07.019Z,100258.25
2018-10-21T22:35:35.238Z,100253.75
2018-10-21T22:38:03.575Z,100252.81
2018-10-21T22:40:31.823Z,100263.48
2018-10-21T22:43:00.019Z,100254.06
2018-10-21T22:45:28.332Z,100262.44
2018-10-21T22:47:56.682Z,100256.36
2018-10-21T22:50:25.062Z,100261.89
2018-10-21T22:52:53.160Z,100257.70
2018-10-21T22:55:21.658Z,100256.97
2018-10-21T22:57:49.864Z,100262.00
2018-10-21T23:00:18.037Z,100258.21
2018-10-21T23:02:50.886Z,100253.63
2018-10-21T23:05:19.142Z,100260.55
2018-10-21T23:07:47.244Z,100259.91
2018-10-21T23:10:15.773Z,100260.74
2018-10-21T23:12:43.896Z,100263.55
2018-10-21T23:15:12.231Z,100264.83
2018-10-21T23:17:40.712Z,100259.80
2018-10-21T23:20:09.197Z,100264.07
2018-10-21T23:22:37.598Z,100258.70
2018-10-21T23:25:06.422Z,100264.87
2018-10-21T23:27:34.751Z,100259.52
2018-10-21T23:30:02.629Z,100261.87
2018-10-21T23:32:30.747Z,100260.83
2018-10-21T23:34:59.203Z,100259.52
2018-10-21T23:37:27.434Z,100263.36
2018-10-21T23:39:55.586Z,100264.96
2018-10-21T23:42:23.791Z,100258.14
2018-10-21T23:44:52.135Z,100261.88
2018-10-21T23:47:20.351Z,100262.13
2018-10-21T23:49:48.663Z,100266.60
2018-10-21T23:52:17.132Z,100265.34
2018-10-21T23:54:45.228Z,100258.14
2018-10-21T23:57:13.507Z,100261.18
2018-10-21T23:59:41.727Z,100258.56
